createdAt,value
2023-03-04T00:00:59.690Z,99.53
2023-03-04T00:03:27.410Z,100.28
2023-03-04T00:05:55.065Z,94.97
2023-03-04T00:08:22.636Z,99.82
2023-03-04T00:10:50.184Z,88.65
2023-03-04T00:13:20.401Z,110.15
2023-03-04T00:15:47.980Z,103.13
2023-03-04T00:18:17.316Z,90.82
2023-03-04T00:20:44.979Z,110.13
2023-03-04T00:23:12.637Z,97.47
2023-03-04T00:25:43.209Z,102.82
2023-03-04T00:28:11.289Z,103.13
2023-03-04T00:30:38.872Z,100.30
2023-03-04T00:33:06.509Z,108.32
2023-03-04T00:35:35.558Z,120.53
2023-03-04T00:38:03.184Z,106.50
2023-03-04T00:40:30.769Z,99.25
2023-03-04T00:42:58.356Z,99.90
2023-03-04T00:45:25.968Z,103.55
2023-03-04T00:47:53.543Z,101.75
2023-03-04T00:50:21.300Z,111.78
2023-03-04T00:52:50.208Z,115.63
2023-03-04T00:55:17.975Z,105.22
2023-03-04T00:57:45.566Z,102.88
2023-03-04T01:00:14.447Z,102.03
2023-03-04T01:02:42.248Z,111.03
2023-03-04T01:05:10.806Z,96.60
2023-03-04T01:07:38.398Z,99.32
2023-03-04T01:10:08.630Z,102.43
2023-03-04T01:12:36.211Z,235.82
2023-03-04T01:15:05.138Z,151.15
2023-03-04T01:17:32.791Z,105.25
2023-03-04T01:20:00.426Z,227.90
2023-03-04T01:22:28.020Z,102.78
2023-03-04T01:24:55.622Z,177.07
2023-03-04T01:27:24.562Z,132.23
2023-03-04T01:29:52.120Z,189.18
2023-03-04T01:32:19.835Z,278.92
2023-03-04T01:34:47.469Z,429.40
2023-03-04T01:37:15.104Z,291.05
2023-03-04T01:39:42.762Z,212.10
2023-03-04T01:42:18.354Z,392.60
2023-03-04T01:44:48.395Z,223.73
2023-03-04T01:47:16.480Z,179.50
2023-03-04T01:49:44.116Z,127.05
2023-03-04T01:52:12.096Z,241.85
2023-03-04T01:54:40.122Z,130.85
2023-03-04T01:57:17.850Z,86.60
2023-03-04T01:59:47.112Z,106.90
2023-03-04T02:02:15.412Z,107.90
2023-03-04T02:04:43.737Z,220.80
2023-03-04T02:07:11.364Z,174.35
2023-03-04T02:09:38.946Z,153.57
2023-03-04T02:12:06.896Z,112.72
2023-03-04T02:14:34.487Z,142.48
2023-03-04T02:17:03.450Z,88.07
2023-03-04T02:19:40.861Z,115.72
2023-03-04T02:22:08.493Z,138.57
2023-03-04T02:24:38.268Z,102.25
2023-03-04T02:27:07.253Z,140.95
2023-03-04T02:29:34.882Z,116.47
2023-03-04T02:32:02.543Z,112.93
2023-03-04T02:34:32.180Z,76.15
2023-03-04T02:37:00.258Z,166.00
2023-03-04T02:39:32.500Z,112.60
2023-03-04T02:42:00.767Z,108.68
2023-03-04T02:44:31.426Z,92.00
2023-03-04T02:46:59.679Z,179.63
2023-03-04T02:49:29.159Z,88.05
2023-03-04T02:52:00.948Z,125.82
2023-03-04T02:54:28.694Z,144.85
2023-03-04T02:56:59.810Z,127.88
2023-03-04T02:59:28.922Z,72.20
2023-03-04T03:01:56.679Z,99.78
2023-03-04T03:04:25.116Z,69.45
2023-03-04T03:06:52.845Z,80.40
2023-03-04T03:09:20.774Z,83.68
2023-03-04T03:11:48.401Z,67.32
2023-03-04T03:14:16.163Z,85.75
2023-03-04T03:16:45.130Z,129.23
2023-03-04T03:19:12.754Z,98.68
2023-03-04T03:21:40.350Z,71.32
2023-03-04T03:24:08.610Z,62.60
2023-03-04T03:26:36.236Z,67.57
2023-03-04T03:29:03.932Z,70.55
2023-03-04T03:31:31.578Z,73.47
2023-03-04T03:34:00.566Z,71.63
2023-03-04T03:36:28.156Z,68.00
2023-03-04T03:38:55.796Z,77.88
2023-03-04T03:41:23.376Z,65.55
2023-03-04T03:43:50.981Z,89.78
2023-03-04T03:46:18.572Z,57.08
2023-03-04T03:48:46.144Z,92.95
2023-03-04T03:51:15.057Z,68.55
2023-03-04T03:53:42.659Z,81.47
2023-03-04T03:56:10.216Z,58.50
2023-03-04T03:58:37.786Z,64.03
2023-03-04T04:01:05.618Z,57.05
2023-03-04T04:03:33.241Z,83.05
2023-03-04T04:06:00.841Z,62.72
2023-03-04T04:08:29.842Z,99.03
2023-03-04T04:10:57.435Z,62.05
2023-03-04T04:13:25.051Z,60.97
2023-03-04T04:15:52.651Z,64.40
2023-03-04T04:18:20.353Z,69.78
2023-03-04T04:20:48.236Z,84.35
2023-03-04T04:23:15.871Z,75.72
2023-03-04T04:25:44.790Z,67.50
2023-03-04T04:28:12.399Z,110.93
2023-03-04T04:30:40.193Z,65.32
2023-03-04T04:33:07.922Z,134.88
2023-03-04T04:35:36.618Z,140.13
2023-03-04T04:38:04.226Z,77.82
2023-03-04T04:40:32.022Z,161.75
2023-03-04T04:43:00.948Z,71.00
2023-03-04T04:45:28.714Z,78.32
2023-03-04T04:47:57.478Z,81.95
2023-03-04T04:50:25.551Z,91.40
2023-03-04T04:52:53.427Z,60.10
2023-03-04T04:55:21.057Z,55.55
2023-03-04T04:57:48.652Z,62.67
2023-03-04T05:00:19.181Z,63.45
2023-03-04T05:02:47.086Z,61.85
2023-03-04T05:05:14.716Z,63.30
2023-03-04T05:07:42.336Z,58.40
2023-03-04T05:10:11.338Z,77.50
2023-03-04T05:12:39.088Z,66.20
2023-03-04T05:15:07.485Z,80.95
2023-03-04T05:17:36.452Z,55.22
2023-03-04T05:20:04.497Z,56.97
2023-03-04T05:22:32.094Z,60.88
2023-03-04T05:24:59.710Z,59.25
2023-03-04T05:27:27.323Z,63.08
2023-03-04T05:29:55.618Z,59.08
2023-03-04T05:32:23.337Z,55.63
2023-03-04T05:34:52.334Z,61.13
2023-03-04T05:37:19.966Z,57.95
2023-03-04T05:39:47.570Z,53.78
2023-03-04T05:42:15.197Z,62.03
2023-03-04T05:44:42.811Z,56.80
2023-03-04T05:47:10.405Z,51.08
2023-03-04T05:49:38.070Z,65.47
2023-03-04T05:52:07.052Z,57.95
2023-03-04T05:54:34.714Z,57.03
2023-03-04T05:57:02.455Z,55.97
2023-03-04T05:59:30.083Z,54.13
2023-03-04T06:01:57.699Z,61.22
2023-03-04T06:04:25.437Z,52.05
2023-03-04T06:06:53.066Z,57.58
2023-03-04T06:09:22.125Z,64.18
2023-03-04T06:11:49.777Z,57.25
2023-03-04T06:14:17.605Z,62.58
2023-03-04T06:16:45.227Z,51.53
2023-03-04T06:19:12.844Z,56.95
2023-03-04T06:21:40.460Z,59.65
2023-03-04T06:24:08.107Z,58.67
2023-03-04T06:26:37.066Z,59.72
2023-03-04T06:29:05.641Z,70.55
2023-03-04T06:31:33.293Z,66.00
2023-03-04T06:34:00.959Z,60.78
2023-03-04T06:36:28.599Z,68.57
2023-03-04T06:38:56.270Z,75.43
2023-03-04T06:41:23.872Z,64.22
2023-03-04T06:43:54.671Z,67.07
2023-03-04T06:46:22.345Z,69.13
2023-03-04T06:48:50.225Z,65.90
2023-03-04T06:51:18.065Z,66.88
2023-03-04T06:53:45.714Z,68.90
2023-03-04T06:56:16.035Z,72.50
2023-03-04T06:58:43.689Z,73.60
2023-03-04T07:01:17.190Z,72.38
2023-03-04T07:03:45.663Z,76.18
2023-03-04T07:06:14.046Z,82.18
2023-03-04T07:08:42.164Z,75.30
2023-03-04T07:11:09.837Z,74.28
2023-03-04T07:13:38.478Z,81.32
2023-03-04T07:16:06.927Z,79.45
2023-03-04T07:18:37.057Z,68.82
2023-03-04T07:21:05.580Z,74.32
2023-03-04T07:23:33.655Z,75.85
2023-03-04T07:26:01.361Z,76.40
2023-03-04T07:28:28.964Z,77.55
2023-03-04T07:30:56.586Z,80.10
2023-03-04T07:33:24.252Z,83.45
2023-03-04T07:36:00.797Z,77.53
2023-03-04T07:38:28.436Z,75.15
2023-03-04T07:40:57.275Z,76.60
2023-03-04T07:43:24.977Z,81.97
2023-03-04T07:45:52.699Z,83.88
2023-03-04T07:48:20.340Z,78.85
2023-03-04T07:50:47.920Z,77.68
2023-03-04T07:53:16.871Z,91.47
2023-03-04T07:55:44.546Z,75.70
2023-03-04T07:58:12.199Z,87.53
2023-03-04T08:00:41.365Z,87.97
2023-03-04T08:03:08.983Z,89.82
2023-03-04T08:05:36.687Z,82.22
2023-03-04T08:08:04.523Z,89.40
2023-03-04T08:10:33.549Z,89.75
2023-03-04T08:13:01.180Z,92.07
2023-03-04T08:15:32.821Z,91.78
2023-03-04T08:18:00.468Z,87.10
2023-03-04T08:20:28.246Z,86.50
2023-03-04T08:22:55.851Z,87.55
2023-03-04T08:25:23.499Z,79.88
2023-03-04T08:27:52.496Z,78.03
2023-03-04T08:30:20.318Z,75.80
2023-03-04T08:32:48.019Z,83.40
2023-03-04T08:35:15.697Z,77.05
2023-03-04T08:37:43.479Z,72.60
2023-03-04T08:40:12.748Z,82.65
2023-03-04T08:42:40.343Z,75.97
2023-03-04T08:45:10.655Z,80.20
2023-03-04T08:47:38.713Z,76.68
2023-03-04T08:50:08.040Z,82.20
2023-03-04T08:52:35.689Z,88.20
2023-03-04T08:55:03.340Z,87.75
2023-03-04T08:57:30.982Z,82.70
2023-03-04T08:59:58.582Z,88.60
2023-03-04T09:02:27.654Z,82.43
2023-03-04T09:04:55.263Z,81.18
2023-03-04T09:07:22.869Z,92.00
2023-03-04T09:09:50.456Z,88.68
2023-03-04T09:12:18.096Z,82.75
2023-03-04T09:14:45.742Z,84.03
2023-03-04T09:17:13.475Z,89.40
2023-03-04T09:19:42.473Z,81.88
2023-03-04T09:22:10.161Z,90.30
2023-03-04T09:24:37.785Z,85.15
2023-03-04T09:27:05.529Z,82.53
2023-03-04T09:29:33.174Z,76.63
2023-03-04T09:32:01.886Z,83.05
2023-03-04T09:34:29.634Z,82.03
2023-03-04T09:36:58.632Z,82.70
2023-03-04T09:39:26.283Z,77.40
2023-03-04T09:41:57.247Z,71.85
2023-03-04T09:44:27.506Z,75.47
2023-03-04T09:46:58.261Z,67.85
2023-03-04T09:49:26.596Z,68.20
2023-03-04T09:52:00.328Z,71.68
2023-03-04T09:54:52.078Z,72.97
2023-03-04T09:57:27.974Z,67.65
2023-03-04T10:00:02.723Z,62.60
2023-03-04T10:02:38.781Z,63.17
2023-03-04T10:05:07.536Z,66.40
2023-03-04T10:07:39.690Z,65.78
2023-03-04T10:12:37.328Z,60.15
2023-03-04T10:15:08.664Z,64.00
2023-03-04T10:17:38.749Z,72.28
2023-03-04T10:20:09.077Z,62.72
2023-03-04T10:22:42.216Z,69.22
2023-03-04T10:25:18.054Z,64.63
2023-03-04T10:27:51.248Z,61.45
2023-03-04T10:30:24.893Z,63.47
2023-03-04T10:32:52.477Z,59.60
2023-03-04T10:35:21.748Z,61.00
2023-03-04T10:37:51.899Z,61.30
2023-03-04T10:40:22.132Z,58.75
2023-03-04T10:42:50.375Z,63.13
2023-03-04T10:45:23.291Z,52.83
2023-03-04T10:47:55.203Z,58.30
2023-03-04T10:50:24.343Z,61.15
2023-03-04T10:52:55.602Z,56.25
2023-03-04T10:55:25.140Z,55.43
2023-03-04T10:57:55.212Z,57.35
2023-03-04T11:00:31.872Z,58.42
2023-03-04T11:03:23.640Z,51.20
2023-03-04T11:05:51.607Z,62.28
2023-03-04T11:08:22.291Z,53.25
2023-03-04T11:10:52.195Z,58.78
2023-03-04T11:13:22.266Z,57.55
2023-03-04T11:15:52.573Z,59.13
2023-03-04T11:18:21.820Z,61.05
2023-03-04T11:20:50.853Z,56.33
2023-03-04T11:23:23.637Z,61.20
2023-03-04T11:25:53.981Z,62.00
2023-03-04T11:28:25.814Z,63.08
2023-03-04T11:30:56.289Z,58.45
2023-03-04T11:33:27.831Z,52.83
2023-03-04T11:36:00.321Z,57.67
2023-03-04T11:38:33.857Z,60.72
2023-03-04T11:41:04.944Z,56.60
2023-03-04T11:43:35.879Z,61.05
2023-03-04T11:46:39.632Z,63.33
2023-03-04T11:49:18.420Z,62.97
2023-03-04T11:51:50.876Z,63.05
2023-03-04T11:54:24.859Z,59.35
2023-03-04T11:56:54.529Z,61.63
2023-03-04T11:59:50.912Z,58.45
2023-03-04T12:02:20.428Z,71.75
2023-03-04T12:05:08.692Z,66.40
2023-03-04T12:07:44.756Z,58.92
2023-03-04T12:10:23.862Z,61.53
2023-03-04T12:13:03.401Z,67.28
2023-03-04T13:01:15.909Z,66.97
2023-03-04T13:03:47.146Z,75.63
2023-03-04T13:06:24.355Z,77.53
2023-03-04T13:08:59.189Z,67.22
2023-03-04T13:11:52.603Z,66.28
2023-03-04T13:14:32.210Z,64.18
2023-03-04T13:17:02.699Z,67.47
2023-03-04T13:20:12.004Z,67.20
2023-03-04T13:22:54.296Z,67.05
2023-03-04T13:25:42.325Z,58.20
2023-03-04T13:28:35.372Z,58.42
2023-03-04T13:31:12.515Z,55.80
2023-03-04T13:33:53.569Z,61.35
2023-03-04T13:36:44.825Z,53.80
2023-03-04T13:39:30.724Z,57.15
2023-03-04T13:41:59.260Z,56.08
2023-03-04T13:44:51.966Z,53.95
2023-03-04T13:47:21.473Z,60.00
2023-03-04T13:49:50.468Z,56.97
2023-03-04T13:52:48.056Z,57.00
2023-03-04T13:55:32.479Z,57.75
2023-03-04T13:58:00.159Z,60.22
2023-03-04T14:00:28.628Z,54.97
2023-03-04T14:02:56.893Z,53.95
2023-03-04T14:05:25.865Z,53.95
2023-03-04T14:07:53.464Z,56.08
2023-03-04T14:10:24.087Z,57.42
2023-03-04T14:12:53.632Z,54.08
2023-03-04T14:15:24.232Z,58.55
2023-03-04T14:17:54.001Z,58.85
2023-03-04T14:20:27.402Z,59.40
2023-03-04T14:22:55.387Z,49.92
2023-03-04T14:25:25.349Z,54.55
2023-03-04T14:28:03.629Z,53.88
2023-03-04T14:30:42.352Z,53.47
2023-03-04T14:33:17.368Z,53.72
2023-03-04T14:35:49.508Z,53.80
2023-03-04T14:40:47.474Z,51.13
2023-03-04T14:43:17.386Z,58.92
2023-03-04T14:45:46.631Z,61.17
2023-03-04T14:48:26.170Z,58.20
2023-03-04T14:50:56.375Z,52.28
2023-03-04T14:53:25.270Z,55.80
2023-03-04T14:55:57.767Z,56.28
2023-03-04T14:58:27.427Z,58.85
2023-03-04T15:01:15.335Z,51.35
2023-03-04T15:03:44.383Z,50.15
2023-03-04T15:06:19.996Z,48.25
2023-03-04T15:08:48.068Z,51.70
2023-03-04T15:11:23.291Z,46.88
2023-03-04T15:13:53.490Z,45.05
2023-03-04T15:16:23.763Z,47.22
2023-03-04T15:19:03.265Z,39.88
2023-03-04T15:21:36.705Z,42.75
2023-03-04T15:24:05.231Z,42.88
2023-03-04T15:26:33.999Z,40.90
2023-03-04T15:29:01.679Z,45.47
2023-03-04T15:31:30.016Z,38.72
2023-03-04T15:33:57.587Z,43.97
2023-03-04T15:36:25.449Z,48.95
2023-03-04T15:38:54.644Z,43.80
2023-03-04T15:41:24.308Z,46.38
2023-03-04T15:43:52.258Z,42.75
2023-03-04T15:46:20.244Z,41.10
2023-03-04T15:48:48.570Z,41.38
2023-03-04T15:51:18.240Z,44.38
2023-03-04T15:53:48.286Z,38.75
2023-03-04T15:56:18.879Z,44.90
2023-03-04T15:58:48.099Z,38.80
2023-03-04T16:01:17.432Z,38.20
2023-03-04T16:03:45.079Z,38.05
2023-03-04T16:06:13.535Z,39.22
2023-03-04T16:08:42.095Z,37.53
2023-03-04T16:11:13.271Z,34.85
2023-03-04T16:13:42.198Z,38.73
2023-03-04T16:16:12.003Z,38.92
2023-03-04T16:18:40.422Z,34.30
2023-03-04T16:21:08.554Z,36.20
2023-03-04T16:23:39.786Z,37.13
2023-03-04T16:26:13.407Z,38.77
2023-03-04T16:28:42.473Z,37.78
2023-03-04T16:31:12.115Z,41.33
2023-03-04T16:33:39.916Z,36.75
2023-03-04T16:36:13.546Z,35.05
2023-03-04T16:38:41.258Z,38.33
2023-03-04T16:41:13.009Z,38.80
2023-03-04T16:43:42.866Z,38.33
2023-03-04T16:46:13.746Z,38.10
2023-03-04T16:48:41.706Z,39.30
2023-03-04T16:51:14.132Z,40.97
2023-03-04T16:53:43.405Z,41.15
2023-03-04T16:56:14.442Z,38.17
2023-03-04T16:58:44.070Z,36.15
2023-03-04T17:01:15.810Z,41.92
2023-03-04T17:03:43.578Z,41.38
2023-03-04T17:06:11.488Z,45.28
2023-03-04T17:08:39.155Z,39.33
2023-03-04T17:11:06.892Z,38.88
2023-03-04T17:13:34.673Z,41.22
2023-03-04T17:16:04.059Z,39.13
2023-03-04T17:18:31.727Z,40.47
2023-03-04T17:21:03.451Z,43.00
2023-03-04T17:23:31.076Z,41.72
2023-03-04T17:25:59.485Z,39.85
2023-03-04T17:28:28.042Z,39.90
2023-03-04T17:30:55.660Z,40.08
2023-03-04T17:33:24.616Z,43.33
2023-03-04T17:35:52.306Z,47.30
2023-03-04T17:38:20.002Z,47.15
2023-03-04T17:40:47.623Z,43.40
2023-03-04T17:43:15.306Z,42.47
2023-03-04T17:45:43.308Z,39.15
2023-03-04T17:48:14.969Z,48.28
2023-03-04T17:50:50.552Z,50.75
2023-03-04T17:53:18.484Z,46.97
2023-03-04T17:55:50.323Z,43.25
2023-03-04T17:58:17.919Z,46.05
2023-03-04T18:00:45.629Z,45.90
2023-03-04T18:03:16.269Z,44.25
2023-03-04T18:05:44.006Z,59.75
2023-03-04T18:08:12.955Z,49.67
2023-03-04T18:10:40.512Z,50.22
2023-03-04T18:13:08.570Z,44.35
2023-03-04T18:15:36.223Z,42.38
2023-03-04T18:18:04.889Z,58.42
2023-03-04T18:20:32.729Z,47.03
2023-03-04T18:23:00.857Z,78.63
2023-03-04T18:25:29.808Z,64.60
2023-03-04T18:27:57.628Z,50.08
2023-03-04T18:30:27.356Z,53.28
2023-03-04T18:32:55.622Z,53.45
2023-03-04T18:35:23.750Z,52.90
2023-03-04T18:37:51.444Z,47.75
2023-03-04T18:40:19.443Z,49.33
2023-03-04T18:42:48.636Z,46.20
2023-03-04T18:45:17.104Z,48.33
2023-03-04T18:47:47.519Z,50.85
2023-03-04T18:50:15.344Z,42.80
2023-03-04T18:52:42.982Z,45.40
2023-03-04T18:55:12.998Z,47.28
2023-03-04T18:57:42.177Z,47.80
2023-03-04T19:00:12.757Z,49.10
2023-03-04T19:02:42.552Z,43.92
2023-03-04T19:05:13.380Z,56.85
2023-03-04T19:07:41.048Z,53.22
2023-03-04T19:10:09.532Z,52.95
2023-03-04T19:12:37.136Z,46.25
2023-03-04T19:15:06.043Z,47.97
2023-03-04T19:17:35.864Z,50.85
2023-03-04T19:20:03.828Z,43.25
2023-03-04T19:22:31.593Z,46.35
2023-03-04T19:24:59.205Z,49.08
2023-03-04T19:27:26.933Z,52.50
2023-03-04T19:29:54.522Z,55.83
2023-03-04T19:32:22.165Z,50.50
2023-03-04T19:34:51.036Z,53.05
2023-03-04T19:37:18.824Z,52.38
2023-03-04T19:39:46.508Z,50.47
2023-03-04T19:42:14.942Z,46.90
2023-03-04T19:44:44.774Z,54.58
2023-03-04T19:47:12.646Z,44.92
2023-03-04T19:49:40.237Z,49.13
2023-03-04T19:52:09.188Z,44.30
2023-03-04T19:54:36.857Z,48.88
2023-03-04T19:57:04.574Z,46.85
2023-03-04T19:59:32.192Z,53.30
2023-03-04T20:02:01.320Z,43.75
2023-03-04T20:04:28.960Z,47.72
2023-03-04T20:06:56.584Z,49.72
2023-03-04T20:09:25.535Z,47.22
2023-03-04T20:12:00.189Z,50.92
2023-03-04T20:14:28.484Z,39.75
2023-03-04T20:17:00.593Z,50.53
2023-03-04T20:19:28.444Z,50.25
2023-03-04T20:21:56.320Z,44.05
2023-03-04T20:24:25.772Z,46.05
2023-03-04T20:26:53.466Z,47.13
2023-03-04T20:29:21.086Z,50.03
2023-03-04T20:31:49.092Z,51.58
2023-03-04T20:34:16.731Z,47.30
2023-03-04T20:36:44.346Z,49.15
2023-03-04T20:39:27.489Z,51.50
2023-03-04T20:41:57.549Z,47.58
2023-03-04T20:44:25.281Z,47.95
2023-03-04T20:46:53.025Z,48.97
2023-03-04T20:49:23.949Z,47.50
2023-03-04T20:51:52.108Z,49.25
2023-03-04T20:54:20.112Z,47.47
2023-03-04T20:56:49.402Z,46.95
2023-03-04T20:59:18.883Z,44.80
2023-03-04T21:01:47.918Z,46.35
2023-03-04T21:04:15.982Z,50.38
2023-03-04T21:06:45.006Z,46.28
2023-03-04T21:09:14.785Z,49.47
2023-03-04T21:11:43.146Z,46.03
2023-03-04T21:14:14.109Z,50.00
2023-03-04T21:16:43.720Z,43.95
2023-03-04T21:19:15.088Z,46.42
2023-03-04T21:21:42.742Z,54.75
2023-03-04T21:24:12.637Z,54.35
2023-03-04T21:26:40.239Z,51.63
2023-03-04T21:29:07.932Z,50.08
2023-03-04T21:31:40.448Z,49.30
2023-03-04T21:34:13.757Z,48.42
2023-03-04T21:36:41.362Z,53.58
2023-03-04T21:39:08.995Z,50.10
2023-03-04T21:41:36.690Z,54.63
2023-03-04T21:44:04.300Z,51.88
2023-03-04T21:46:32.079Z,51.85
2023-03-04T21:48:59.713Z,50.47
2023-03-04T21:51:28.726Z,57.30
2023-03-04T21:53:56.395Z,47.83
2023-03-04T21:56:24.035Z,56.53
2023-03-04T21:58:51.620Z,54.25
2023-03-04T22:01:21.525Z,107.28
2023-03-04T22:03:51.407Z,87.78
2023-03-04T22:06:22.626Z,57.78
2023-03-04T22:08:52.706Z,55.42
2023-03-04T22:11:21.266Z,59.85
2023-03-04T22:13:50.536Z,50.22
2023-03-04T22:16:18.252Z,53.85
2023-03-04T22:18:45.890Z,59.67
2023-03-04T22:21:15.060Z,46.38
2023-03-04T22:23:42.844Z,49.92
2023-03-04T22:26:13.940Z,53.97
2023-03-04T22:28:42.009Z,55.33
2023-03-04T22:31:15.250Z,55.70
2023-03-04T22:33:43.869Z,56.88
2023-03-04T22:36:11.869Z,55.20
2023-03-04T22:38:39.968Z,57.33
2023-03-04T22:41:15.019Z,65.20
2023-03-04T22:43:42.734Z,55.67
2023-03-04T22:46:14.589Z,57.10
2023-03-04T22:48:42.258Z,58.08
2023-03-04T22:51:10.929Z,57.58
2023-03-04T22:53:38.853Z,57.72
2023-03-04T22:56:06.591Z,64.75
2023-03-04T22:58:35.550Z,55.03
2023-03-04T23:01:04.589Z,61.10
2023-03-04T23:03:32.245Z,50.60
2023-03-04T23:06:04.814Z,63.85
2023-03-04T23:08:32.385Z,60.72
2023-03-04T23:10:59.984Z,58.67
2023-03-04T23:13:27.569Z,65.70
2023-03-04T23:15:56.464Z,56.75
2023-03-04T23:18:24.062Z,63.97
2023-03-04T23:20:51.647Z,61.38
2023-03-04T23:23:19.275Z,66.03
2023-03-04T23:25:49.206Z,58.88
2023-03-04T23:28:16.820Z,63.05
2023-03-04T23:30:44.437Z,53.53
2023-03-04T23:33:13.400Z,65.85
2023-03-04T23:35:41.011Z,58.20
2023-03-04T23:38:08.737Z,61.75
2023-03-04T23:40:36.396Z,57.90
2023-03-04T23:43:03.993Z,57.78
2023-03-04T23:45:33.312Z,61.72
2023-03-04T23:48:00.901Z,57.67
2023-03-04T23:50:32.130Z,60.75
2023-03-04T23:52:59.716Z,63.25
2023-03-04T23:55:28.360Z,52.42
2023-03-04T23:57:55.910Z,56.40
